Time;durP1;ratioP1;P1;durP2;ratioP2;P2;SDS_P1;SDS_P2;PMS_P1;PMS_P2;Temp;Humidity;BMP_temperature;BMP_pressure;BME280_temperature;BME280_humidity;BME280_pressure;Samples;Min_cycle;Max_cycle;Signal;HPM_P1;HPM_P2
2022/12/22 03:27:15;;;;;;;90.20;39.70;;;;;;;;;;10448074;28;20028;-74
2022/12/22 03:32:16;;;;;;;87.82;38.92;;;;;;;;;;10448036;28;20029;-73
2022/12/22 03:37:16;;;;;;;89.53;40.00;;;;;;;;;;10447892;28;20013;-74
2022/12/22 03:47:36;;;;;;;111.53;44.03;;;;;;;;;;10447558;28;20021;-79
2022/12/22 03:52:36;;;;;;;95.90;42.92;;;;;;;;;;10413033;28;20021;-78
2022/12/22 03:57:37;;;;;;;85.93;41.03;;;;;;;;;;10446812;28;20027;-78
2022/12/22 04:02:38;;;;;;;99.95;44.38;;;;;;;;;;10429433;28;20079;-78
2022/12/22 04:07:38;;;;;;;94.00;42.38;;;;;;;;;;10445023;28;20549;-74
2022/12/22 04:12:53;;;;;;;97.50;41.08;;;;;;;;;;10446071;28;20099;-74
2022/12/22 04:17:54;;;;;;;96.28;42.78;;;;;;;;;;10487946;28;20063;-73
2022/12/22 04:22:54;;;;;;;95.30;43.20;;;;;;;;;;10480044;28;20138;-74
2022/12/22 04:27:55;;;;;;;100.95;42.92;;;;;;;;;;10497642;28;20108;-78
2022/12/22 04:32:55;;;;;;;107.65;44.67;;;;;;;;;;10483599;28;20029;-74
2022/12/22 04:37:55;;;;;;;115.10;47.50;;;;;;;;;;10477463;28;20560;-75
2022/12/22 04:42:56;;;;;;;97.60;45.78;;;;;;;;;;10474026;28;20489;-80
2022/12/22 04:47:56;;;;;;;117.35;54.13;;;;;;;;;;10468161;28;20102;-74
2022/12/22 04:52:56;;;;;;;123.57;57.28;;;;;;;;;;10466873;28;20052;-77
2022/12/22 04:57:56;;;;;;;110.72;56.38;;;;;;;;;;10457047;28;20036;-74
2022/12/22 05:02:57;;;;;;;101.18;48.95;;;;;;;;;;10442816;28;20028;-74
2022/12/22 05:07:57;;;;;;;116.45;49.50;;;;;;;;;;10443457;28;20078;-77
2022/12/22 05:12:57;;;;;;;84.60;40.45;;;;;;;;;;10458107;28;20053;-79
2022/12/22 05:17:58;;;;;;;91.45;39.53;;;;;;;;;;10485125;28;20013;-74
2022/12/22 05:22:58;;;;;;;67.88;33.05;;;;;;;;;;10484972;28;20031;-78
2022/12/22 05:27:59;;;;;;;55.95;27.80;;;;;;;;;;10445790;28;20115;-74
2022/12/22 05:32:59;;;;;;;36.67;17.63;;;;;;;;;;10455082;28;20025;-75
2022/12/22 05:37:59;;;;;;;43.05;19.60;;;;;;;;;;10469900;28;20474;-78
2022/12/22 05:43:00;;;;;;;47.47;23.50;;;;;;;;;;10478959;28;20023;-76
2022/12/22 05:48:00;;;;;;;37.67;19.85;;;;;;;;;;10437523;28;20499;-76
2022/12/22 05:53:00;;;;;;;71.60;31.23;;;;;;;;;;10458457;28;20035;-74
2022/12/22 05:58:00;;;;;;;68.35;33.55;;;;;;;;;;10482463;28;20582;-78
2022/12/22 06:03:01;;;;;;;54.60;27.40;;;;;;;;;;10463708;28;20467;-74
2022/12/22 06:08:01;;;;;;;71.38;29.90;;;;;;;;;;10456063;28;20044;-74
2022/12/22 06:13:01;;;;;;;56.05;23.42;;;;;;;;;;10475569;28;20067;-77
2022/12/22 06:18:01;;;;;;;38.03;13.95;;;;;;;;;;10483869;28;20021;-76
2022/12/22 06:23:02;;;;;;;29.63;13.43;;;;;;;;;;10465239;28;20571;-79
2022/12/22 06:28:02;;;;;;;26.87;12.80;;;;;;;;;;10464302;28;20021;-73
2022/12/22 06:33:02;;;;;;;25.23;12.23;;;;;;;;;;10443001;28;20025;-74
2022/12/22 06:38:03;;;;;;;31.17;14.45;;;;;;;;;;10469874;28;20846;-74
2022/12/22 06:43:09;;;;;;;32.50;15.23;;;;;;;;;;10480851;28;20028;-75
2022/12/22 06:48:12;;;;;;;32.67;15.90;;;;;;;;;;10468963;28;20025;-79
2022/12/22 06:53:12;;;;;;;37.78;17.33;;;;;;;;;;10459724;28;20038;-78
2022/12/22 06:58:12;;;;;;;35.13;16.15;;;;;;;;;;10490670;28;20032;-74
2022/12/22 07:03:13;;;;;;;48.33;20.83;;;;;;;;;;10489666;28;20112;-78
2022/12/22 07:08:13;;;;;;;70.33;31.47;;;;;;;;;;10472411;28;20056;-74
2022/12/22 07:13:19;;;;;;;62.17;27.77;;;;;;;;;;10489337;28;20084;-78
2022/12/22 07:18:20;;;;;;;47.20;22.50;;;;;;;;;;10488210;28;20029;-78
2022/12/22 07:23:20;;;;;;;56.57;25.57;;;;;;;;;;10471491;28;20059;-76
2022/12/22 07:28:20;;;;;;;57.17;29.00;;;;;;;;;;10489031;28;20036;-78
2022/12/22 07:33:21;;;;;;;59.07;29.73;;;;;;;;;;10441923;28;20041;-77
2022/12/22 07:38:21;;;;;;;66.10;25.27;;;;;;;;;;10454856;28;20019;-75
2022/12/22 07:43:21;;;;;;;42.72;19.77;;;;;;;;;;10488915;28;20101;-75
2022/12/22 07:53:42;;;;;;;53.55;23.10;;;;;;;;;;10488078;28;20033;-77
2022/12/22 07:58:42;;;;;;;50.72;21.17;;;;;;;;;;10469985;28;20024;-74
2022/12/22 08:03:42;;;;;;;54.13;22.52;;;;;;;;;;10486326;28;20024;-78
2022/12/22 08:08:43;;;;;;;56.63;21.45;;;;;;;;;;10470263;28;20021;-78
2022/12/22 08:13:43;;;;;;;58.55;23.75;;;;;;;;;;10485638;28;20053;-78
2022/12/22 08:18:43;;;;;;;65.88;24.88;;;;;;;;;;10487443;28;20112;-78
2022/12/22 08:23:44;;;;;;;50.33;23.77;;;;;;;;;;10474673;28;20101;-74
2022/12/22 08:28:57;;;;;;;55.45;24.65;;;;;;;;;;10500669;28;20028;-75
2022/12/22 08:34:01;;;;;;;46.97;20.65;;;;;;;;;;10489310;28;20467;-77
2022/12/22 08:39:01;;;;;;;52.45;22.42;;;;;;;;;;10485727;28;20983;-74
2022/12/22 08:44:01;;;;;;;50.95;22.13;;;;;;;;;;10468441;28;20024;-74
2022/12/22 08:49:03;;;;;;;75.20;30.95;;;;;;;;;;10484678;28;20391;-74
2022/12/22 08:54:03;;;;;;;80.75;36.45;;;;;;;;;;10467395;28;20759;-77
2022/12/22 08:59:06;;;;;;;85.78;36.42;;;;;;;;;;10467494;28;20020;-75
2022/12/22 09:04:06;;;;;;;82.15;35.20;;;;;;;;;;10467114;28;20115;-77
2022/12/22 09:09:08;;;;;;;75.53;36.33;;;;;;;;;;10483845;28;20089;-78
2022/12/22 09:14:09;;;;;;;83.43;39.15;;;;;;;;;;10482444;28;20760;-73
2022/12/22 09:19:09;;;;;;;84.50;37.20;;;;;;;;;;10449676;28;20066;-75
2022/12/22 09:24:09;;;;;;;80.00;36.50;;;;;;;;;;10483198;28;20035;-74
2022/12/22 09:29:10;;;;;;;87.50;35.83;;;;;;;;;;10466197;28;20378;-74
2022/12/22 09:34:10;;;;;;;80.43;33.70;;;;;;;;;;10466107;28;20024;-74
2022/12/22 09:39:11;;;;;;;72.50;31.33;;;;;;;;;;10482479;28;20796;-73
2022/12/22 09:44:21;;;;;;;73.10;34.00;;;;;;;;;;10482504;28;20030;-79
2022/12/22 09:49:22;;;;;;;88.22;32.65;;;;;;;;;;10481889;28;20672;-73
2022/12/22 09:54:23;;;;;;;85.88;31.77;;;;;;;;;;10481932;28;20035;-79
2022/12/22 09:59:27;;;;;;;73.78;32.60;;;;;;;;;;10465032;28;20021;-78
2022/12/22 10:04:40;;;;;;;90.38;33.38;;;;;;;;;;10481689;28;20476;-75
2022/12/22 10:09:40;;;;;;;76.22;32.53;;;;;;;;;;10482426;28;20033;-75
2022/12/22 10:14:42;;;;;;;59.00;29.98;;;;;;;;;;10483011;28;20048;-77
2022/12/22 10:19:43;;;;;;;66.78;28.65;;;;;;;;;;10481455;28;20027;-80
2022/12/22 10:24:43;;;;;;;52.05;26.92;;;;;;;;;;10483069;28;20628;-74
2022/12/22 10:29:43;;;;;;;51.72;24.98;;;;;;;;;;10473558;28;20028;-74
2022/12/22 10:34:57;;;;;;;56.83;26.13;;;;;;;;;;10473273;28;20039;-76
2022/12/22 10:39:57;;;;;;;79.50;40.28;;;;;;;;;;10474249;28;20271;-75
2022/12/22 10:44:58;;;;;;;60.93;27.10;;;;;;;;;;10498396;28;20082;-74
2022/12/22 10:49:58;;;;;;;60.70;26.87;;;;;;;;;;10490863;28;20026;-74
2022/12/22 10:55:19;;;;;;;58.03;27.83;;;;;;;;;;10448876;28;20047;-73
2022/12/22 11:00:30;;;;;;;62.72;29.13;;;;;;;;;;10471365;28;20462;-77
2022/12/22 11:05:30;;;;;;;59.22;28.98;;;;;;;;;;10471510;28;20024;-74
2022/12/22 11:10:40;;;;;;;58.72;27.67;;;;;;;;;;10489392;28;20028;-74
2022/12/22 11:15:55;;;;;;;59.88;28.20;;;;;;;;;;10487642;28;20083;-78
2022/12/22 11:21:14;;;;;;;58.03;27.13;;;;;;;;;;10488668;28;20020;-74
2022/12/22 11:26:33;;;;;;;81.22;31.23;;;;;;;;;;10479848;28;20028;-73
2022/12/22 11:31:42;;;;;;;61.50;26.95;;;;;;;;;;10487649;28;20110;-79
2022/12/22 11:36:57;;;;;;;49.17;23.55;;;;;;;;;;10471211;28;20476;-74
2022/12/22 11:42:10;;;;;;;53.88;25.00;;;;;;;;;;10461250;28;20067;-79
2022/12/22 11:47:36;;;;;;;54.50;26.20;;;;;;;;;;10487554;28;20485;-74
2022/12/22 11:52:43;;;;;;;53.80;26.30;;;;;;;;;;10465655;28;20039;-77
2022/12/22 11:58:12;;;;;;;56.65;27.08;;;;;;;;;;10485724;28;20020;-79
2022/12/22 12:03:19;;;;;;;63.15;31.45;;;;;;;;;;10416744;28;20041;-75
2022/12/22 12:08:42;;;;;;;68.00;31.38;;;;;;;;;;10488628;28;20135;-77
2022/12/22 12:13:52;;;;;;;67.03;33.65;;;;;;;;;;10470639;28;20514;-75
2022/12/22 12:18:59;;;;;;;72.05;35.05;;;;;;;;;;10489548;28;20025;-74
2022/12/22 12:24:17;;;;;;;73.35;33.55;;;;;;;;;;10486209;28;20055;-75
2022/12/22 12:29:20;;;;;;;83.07;36.20;;;;;;;;;;10486544;28;20028;-79
2022/12/22 12:34:21;;;;;;;93.97;36.95;;;;;;;;;;10467739;28;20063;-74
2022/12/22 12:39:21;;;;;;;84.60;35.97;;;;;;;;;;10485341;28;20027;-74
2022/12/22 12:44:24;;;;;;;88.22;32.67;;;;;;;;;;10483408;28;20035;-74
2022/12/22 12:49:34;;;;;;;81.50;37.05;;;;;;;;;;10470624;28;20024;-79
2022/12/22 12:54:41;;;;;;;88.43;36.42;;;;;;;;;;10484742;28;20032;-78
2022/12/22 12:59:42;;;;;;;76.30;35.80;;;;;;;;;;10466333;28;20016;-74
2022/12/22 13:04:59;;;;;;;88.40;36.80;;;;;;;;;;10483890;28;20405;-77
2022/12/22 13:10:07;;;;;;;80.45;35.85;;;;;;;;;;10496850;28;20052;-72
2022/12/22 13:15:26;;;;;;;114.70;37.97;;;;;;;;;;10461380;28;20048;-75
2022/12/22 13:20:29;;;;;;;86.07;36.47;;;;;;;;;;10467644;28;20048;-72
2022/12/22 13:25:50;;;;;;;85.45;39.08;;;;;;;;;;10462761;28;20693;-74
2022/12/22 13:31:04;;;;;;;88.30;37.55;;;;;;;;;;10466661;28;20040;-75
2022/12/22 13:36:05;;;;;;;94.60;40.97;;;;;;;;;;10480657;28;20051;-76
2022/12/22 13:41:17;;;;;;;91.65;40.88;;;;;;;;;;10465443;28;20059;-75
2022/12/22 13:46:17;;;;;;;98.05;42.85;;;;;;;;;;10480624;28;20098;-79
2022/12/22 13:51:18;;;;;;;89.30;39.37;;;;;;;;;;10432690;28;20539;-79
2022/12/22 13:56:22;;;;;;;93.53;36.67;;;;;;;;;;10480585;28;20021;-75
2022/12/22 14:01:23;;;;;;;122.43;42.58;;;;;;;;;;10481223;28;20028;-74
2022/12/22 14:06:28;;;;;;;99.10;40.42;;;;;;;;;;10465016;28;20348;-74
2022/12/22 14:11:30;;;;;;;115.40;41.50;;;;;;;;;;10469630;28;20021;-74
2022/12/22 14:16:30;;;;;;;92.75;39.67;;;;;;;;;;10409133;28;20040;-75
2022/12/22 14:21:30;;;;;;;68.85;35.80;;;;;;;;;;10455596;28;20410;-74
2022/12/22 14:26:31;;;;;;;82.22;31.08;;;;;;;;;;10475274;28;20052;-75
2022/12/22 14:31:31;;;;;;;74.63;30.67;;;;;;;;;;10456196;28;20031;-73
2022/12/22 14:36:35;;;;;;;74.50;29.90;;;;;;;;;;10478633;28;21030;-75
2022/12/22 14:41:56;;;;;;;81.93;34.63;;;;;;;;;;10482035;28;20522;-77
2022/12/22 14:47:05;;;;;;;74.55;31.92;;;;;;;;;;10466799;28;20059;-74
2022/12/22 14:52:06;;;;;;;74.75;31.88;;;;;;;;;;10463819;28;20039;-79
2022/12/22 14:57:12;;;;;;;84.90;33.92;;;;;;;;;;10449794;28;20370;-74
2022/12/22 15:02:22;;;;;;;67.68;29.20;;;;;;;;;;10450439;28;20111;-77
2022/12/22 15:07:22;;;;;;;72.43;31.10;;;;;;;;;;10456953;28;20024;-77
2022/12/22 15:12:22;;;;;;;70.03;29.70;;;;;;;;;;10462430;28;20025;-74
2022/12/22 15:17:24;;;;;;;68.97;33.35;;;;;;;;;;10467719;28;20115;-78
2022/12/22 15:22:25;;;;;;;84.05;34.10;;;;;;;;;;10465948;28;20518;-74
2022/12/22 15:27:25;;;;;;;67.97;32.57;;;;;;;;;;10469153;28;20032;-73
2022/12/22 15:32:28;;;;;;;85.85;33.67;;;;;;;;;;10439325;28;20055;-79
2022/12/22 15:37:28;;;;;;;68.07;32.20;;;;;;;;;;10457171;28;20029;-73
2022/12/22 15:42:29;;;;;;;70.00;31.90;;;;;;;;;;10457451;28;20016;-74
2022/12/22 15:47:29;;;;;;;76.32;34.80;;;;;;;;;;10467493;28;20482;-74
2022/12/22 15:52:30;;;;;;;76.50;33.03;;;;;;;;;;10476719;28;20108;-76
2022/12/22 15:57:31;;;;;;;69.53;32.25;;;;;;;;;;10485132;28;20443;-76
2022/12/22 16:02:31;;;;;;;75.00;33.25;;;;;;;;;;10469866;28;20020;-74
2022/12/22 16:07:31;;;;;;;75.43;34.55;;;;;;;;;;10468565;28;20020;-75
2022/12/22 16:12:33;;;;;;;80.03;36.42;;;;;;;;;;10461206;28;20037;-75
2022/12/22 16:17:33;;;;;;;77.68;36.83;;;;;;;;;;10482941;28;20398;-79
2022/12/22 16:22:34;;;;;;;91.82;37.72;;;;;;;;;;10459923;28;20027;-76
2022/12/22 16:27:35;;;;;;;78.38;36.70;;;;;;;;;;10447604;28;20017;-76
2022/12/22 16:32:35;;;;;;;83.32;37.30;;;;;;;;;;10458154;28;20028;-75
2022/12/22 16:37:36;;;;;;;102.95;44.25;;;;;;;;;;10440897;28;20241;-79
2022/12/22 16:42:37;;;;;;;95.80;41.15;;;;;;;;;;10460978;28;20082;-79
2022/12/22 16:47:39;;;;;;;104.10;42.50;;;;;;;;;;10450908;28;20040;-80
2022/12/22 16:52:39;;;;;;;105.82;41.05;;;;;;;;;;10464516;28;20082;-80
2022/12/22 16:57:40;;;;;;;107.40;39.13;;;;;;;;;;10458739;28;20009;-76
2022/12/22 17:02:40;;;;;;;96.32;40.45;;;;;;;;;;10457916;28;20034;-74
2022/12/22 17:07:41;;;;;;;93.63;42.10;;;;;;;;;;10444228;28;20021;-74
2022/12/22 17:12:41;;;;;;;106.18;41.20;;;;;;;;;;10444663;28;20119;-74
2022/12/22 17:17:41;;;;;;;106.20;42.90;;;;;;;;;;10457776;28;20009;-79
2022/12/22 17:22:47;;;;;;;107.20;41.50;;;;;;;;;;10466388;28;20016;-77
2022/12/22 17:27:47;;;;;;;114.43;42.67;;;;;;;;;;10460697;28;20016;-73
2022/12/22 17:32:51;;;;;;;89.80;37.40;;;;;;;;;;10460619;28;20028;-72
2022/12/22 17:37:53;;;;;;;107.13;39.88;;;;;;;;;;10463226;28;20337;-74
2022/12/22 17:42:53;;;;;;;99.78;43.40;;;;;;;;;;10462613;28;20023;-73
2022/12/22 17:47:53;;;;;;;92.40;40.88;;;;;;;;;;10462223;28;20017;-74
2022/12/22 17:52:54;;;;;;;86.85;41.80;;;;;;;;;;10467940;28;20024;-73
2022/12/22 17:57:54;;;;;;;85.57;38.90;;;;;;;;;;10459510;28;20144;-73
2022/12/22 18:02:55;;;;;;;116.55;40.28;;;;;;;;;;10455788;28;20708;-74
2022/12/22 18:07:59;;;;;;;112.75;41.05;;;;;;;;;;10463113;28;20036;-73
2022/12/22 18:13:00;;;;;;;101.95;42.35;;;;;;;;;;10456915;28;20103;-75
2022/12/22 18:18:00;;;;;;;115.40;40.03;;;;;;;;;;10403289;28;20610;-76
2022/12/22 18:23:00;;;;;;;114.72;43.50;;;;;;;;;;10420622;28;20021;-77
2022/12/22 18:28:01;;;;;;;102.03;39.40;;;;;;;;;;10395094;28;20029;-79
2022/12/22 18:33:01;;;;;;;73.72;28.98;;;;;;;;;;10415988;28;20274;-78
2022/12/22 18:38:01;;;;;;;53.60;23.30;;;;;;;;;;10399262;28;20116;-79
2022/12/22 18:43:11;;;;;;;43.72;18.88;;;;;;;;;;10403429;28;20037;-82
2022/12/22 18:48:11;;;;;;;60.42;22.52;;;;;;;;;;10427932;28;20025;-75
2022/12/22 18:53:23;;;;;;;51.20;23.25;;;;;;;;;;10394001;28;20230;-75
2022/12/22 18:58:23;;;;;;;71.95;25.98;;;;;;;;;;10404541;28;20116;-74
2022/12/22 19:03:25;;;;;;;83.78;29.02;;;;;;;;;;10414292;28;20031;-75
2022/12/22 19:08:26;;;;;;;81.85;30.52;;;;;;;;;;10430663;28;20059;-78
2022/12/22 19:13:32;;;;;;;88.55;30.77;;;;;;;;;;10428221;28;20046;-75
2022/12/22 19:18:32;;;;;;;69.85;30.65;;;;;;;;;;10452581;28;20028;-79
2022/12/22 19:23:32;;;;;;;72.93;29.30;;;;;;;;;;10459646;28;20463;-78
2022/12/22 19:28:41;;;;;;;98.93;32.47;;;;;;;;;;10455571;28;20082;-80
2022/12/22 19:34:05;;;;;;;81.88;33.20;;;;;;;;;;10540965;27;20850;-80
2022/12/22 19:39:06;;;;;;;67.28;31.65;;;;;;;;;;10517448;28;20055;-80
2022/12/22 19:44:25;;;;;;;77.73;30.73;;;;;;;;;;10515920;28;20020;-79
2022/12/22 19:49:26;;;;;;;71.80;29.65;;;;;;;;;;10512519;28;20032;-80
2022/12/22 19:54:26;;;;;;;87.43;31.38;;;;;;;;;;10518880;28;20402;-80
2022/12/22 19:59:35;;;;;;;92.03;32.88;;;;;;;;;;10543289;28;20016;-74
2022/12/22 20:04:35;;;;;;;;;;;;;;;;;;10546145;28;20051;-76
2022/12/22 20:09:36;;;;;;;81.38;35.35;;;;;;;;;;10516821;28;19989;-79
2022/12/22 20:14:36;;;;;;;97.30;34.47;;;;;;;;;;10517552;28;20016;-81
2022/12/22 20:19:36;;;;;;;81.47;34.05;;;;;;;;;;10515872;28;20020;-81
2022/12/22 20:24:37;;;;;;;81.70;33.03;;;;;;;;;;10515675;28;20478;-79
2022/12/22 20:29:37;;;;;;;107.32;38.10;;;;;;;;;;10517487;28;20044;-77
2022/12/22 20:34:39;;;;;;;83.05;38.17;;;;;;;;;;10517405;27;20452;-74
2022/12/22 20:39:39;;;;;;;87.40;39.80;;;;;;;;;;10516111;28;20085;-74
2022/12/22 20:44:40;;;;;;;86.10;37.57;;;;;;;;;;10482624;28;20383;-75
2022/12/22 20:49:40;;;;;;;85.13;37.78;;;;;;;;;;10476445;28;20271;-74
2022/12/22 20:54:41;;;;;;;73.97;35.13;;;;;;;;;;10486497;28;20023;-79
2022/12/22 20:59:43;;;;;;;88.97;36.90;;;;;;;;;;10485766;28;20020;-78
2022/12/22 21:04:43;;;;;;;89.60;39.42;;;;;;;;;;10487085;28;20032;-80
2022/12/22 21:09:43;;;;;;;87.03;35.45;;;;;;;;;;10485623;28;20031;-74
2022/12/22 21:14:43;;;;;;;71.22;30.83;;;;;;;;;;10484237;28;20378;-76
2022/12/22 21:19:44;;;;;;;62.63;28.00;;;;;;;;;;10483992;28;20469;-73
2022/12/22 21:24:45;;;;;;;96.22;36.17;;;;;;;;;;10472943;28;20056;-74
2022/12/22 21:29:46;;;;;;;85.78;37.08;;;;;;;;;;10485268;28;20102;-73
2022/12/22 21:34:46;;;;;;;100.13;40.90;;;;;;;;;;10484912;28;20812;-74
2022/12/22 21:39:46;;;;;;;92.28;39.13;;;;;;;;;;10483932;28;20038;-75
2022/12/22 21:44:47;;;;;;;80.97;34.22;;;;;;;;;;10485267;28;20023;-75
2022/12/22 21:49:49;;;;;;;73.13;38.15;;;;;;;;;;10483820;28;20509;-74
2022/12/22 21:54:49;;;;;;;77.55;32.33;;;;;;;;;;10444882;28;20176;-79
2022/12/22 21:59:49;;;;;;;82.18;33.15;;;;;;;;;;10472961;28;20025;-74
2022/12/22 22:04:49;;;;;;;88.30;35.00;;;;;;;;;;10492897;28;20473;-75
2022/12/22 22:09:50;;;;;;;77.82;34.50;;;;;;;;;;10488637;28;20502;-78
2022/12/22 22:14:50;;;;;;;95.67;37.43;;;;;;;;;;10485275;28;20019;-75
2022/12/22 22:19:50;;;;;;;95.32;39.78;;;;;;;;;;10487283;28;20024;-79
2022/12/22 22:24:50;;;;;;;80.05;34.88;;;;;;;;;;10485623;28;20021;-74
2022/12/22 22:29:51;;;;;;;71.20;27.25;;;;;;;;;;10486370;28;20048;-79
2022/12/22 22:34:51;;;;;;;56.45;29.25;;;;;;;;;;10484260;28;20328;-76
2022/12/22 22:39:52;;;;;;;84.00;32.13;;;;;;;;;;10484617;28;20024;-81
2022/12/22 22:44:52;;;;;;;57.63;26.93;;;;;;;;;;10483287;28;20020;-79
2022/12/22 22:49:52;;;;;;;31.80;15.15;;;;;;;;;;10484217;28;20348;-80
2022/12/22 22:54:52;;;;;;;29.67;14.02;;;;;;;;;;10484943;28;20021;-78
2022/12/22 22:59:53;;;;;;;27.75;12.65;;;;;;;;;;10483196;28;20025;-74
2022/12/22 23:04:53;;;;;;;30.35;14.20;;;;;;;;;;10482991;28;20073;-74
2022/12/22 23:09:53;;;;;;;20.93;12.10;;;;;;;;;;10482230;28;20016;-75
2022/12/22 23:14:55;;;;;;;24.73;12.60;;;;;;;;;;10482516;28;20017;-76
2022/12/22 23:19:55;;;;;;;32.63;14.68;;;;;;;;;;10444789;28;20023;-74
2022/12/22 23:24:56;;;;;;;34.90;15.35;;;;;;;;;;10452016;28;20029;-77
2022/12/22 23:29:57;;;;;;;30.77;14.73;;;;;;;;;;10482088;28;20080;-74
2022/12/22 23:34:57;;;;;;;24.38;13.20;;;;;;;;;;10482307;28;20012;-75
2022/12/22 23:39:57;;;;;;;30.60;15.90;;;;;;;;;;10481638;28;20454;-74
2022/12/22 23:44:58;;;;;;;30.45;15.13;;;;;;;;;;10483273;28;20039;-79
2022/12/22 23:49:58;;;;;;;22.55;12.30;;;;;;;;;;10481400;28;20030;-74
2022/12/22 23:54:58;;;;;;;26.45;13.68;;;;;;;;;;10482340;28;20017;-81
2022/12/22 23:59:59;;;;;;;30.37;14.23;;;;;;;;;;10486775;28;20103;-74
